createdAt,value
2018-03-29T00:04:49.417Z,10.81
2018-03-29T00:10:40.326Z,7.31
2018-03-29T00:16:31.201Z,7.88
2018-03-29T00:22:22.151Z,9.85
2018-03-29T00:28:12.986Z,7.85
2018-03-29T00:34:03.877Z,12.73
2018-03-29T00:39:54.792Z,8.75
2018-03-29T00:45:45.704Z,9.79
2018-03-29T00:51:36.561Z,8.84
2018-03-29T00:57:27.441Z,10.74
2018-03-29T01:03:18.409Z,9.62
2018-03-29T01:09:09.276Z,11.76
2018-03-29T01:15:00.109Z,12.79
2018-03-29T01:20:51.036Z,11.09
2018-03-29T01:26:41.932Z,12.29
2018-03-29T01:32:32.801Z,10.01
2018-03-29T01:38:23.710Z,7.68
2018-03-29T01:44:14.617Z,9.9
2018-03-29T01:50:05.537Z,10.92
2018-03-29T01:55:56.423Z,9.21
2018-03-29T02:01:47.332Z,9.26
2018-03-29T02:07:38.161Z,9.72
2018-03-29T02:13:29.083Z,11.94
2018-03-29T02:19:19.956Z,9.18
2018-03-29T02:25:10.849Z,11.2
2018-03-29T02:31:01.746Z,10.11
2018-03-29T02:36:52.627Z,10.05
2018-03-29T02:42:43.513Z,8.12
2018-03-29T02:48:34.412Z,6.49
2018-03-29T02:54:25.296Z,5.7
2018-03-29T03:00:16.209Z,7.48
2018-03-29T03:06:07.105Z,6.61
2018-03-29T03:11:58.004Z,6.34
2018-03-29T03:17:48.934Z,9.78
2018-03-29T03:23:39.818Z,7.63
2018-03-29T03:29:30.710Z,6.64
2018-03-29T03:35:21.571Z,7.3
2018-03-29T03:41:12.464Z,5.5
2018-03-29T03:47:03.331Z,6.66
2018-03-29T03:52:54.225Z,7.4
2018-03-29T03:58:45.136Z,7.47
2018-03-29T04:04:36.053Z,6.08
2018-03-29T04:10:26.967Z,6.76
2018-03-29T04:16:17.816Z,6.69
2018-03-29T04:22:08.760Z,7.86
2018-03-29T04:27:59.619Z,6.24
2018-03-29T04:33:50.502Z,6.74
2018-03-29T04:39:41.421Z,7.84
2018-03-29T04:45:32.285Z,6.79
2018-03-29T04:51:23.196Z,9.45
2018-03-29T04:57:14.092Z,5.16
2018-03-29T05:03:04.964Z,7.85
2018-03-29T05:08:55.885Z,10.87
2018-03-29T05:14:46.771Z,6.68
2018-03-29T05:20:37.662Z,6.82
2018-03-29T05:26:28.570Z,4.8
2018-03-29T05:32:19.468Z,11.03
2018-03-29T05:38:10.356Z,5.85
2018-03-29T05:44:01.241Z,9.02
2018-03-29T05:49:52.135Z,9.31
2018-03-29T05:55:43.057Z,7.41
2018-03-29T06:01:33.921Z,7.91
2018-03-29T06:07:24.812Z,9.68
2018-03-29T06:13:15.710Z,9.73
2018-03-29T06:19:06.604Z,10.12
2018-03-29T06:24:57.503Z,10.69
2018-03-29T06:30:48.387Z,13.21
2018-03-29T06:36:39.265Z,11.46
2018-03-29T06:42:30.173Z,10.69
2018-03-29T06:48:21.042Z,7.55
2018-03-29T06:54:11.962Z,14.28
2018-03-29T07:00:02.856Z,20.88
2018-03-29T07:05:53.740Z,13.55
2018-03-29T07:11:44.620Z,11.71
2018-03-29T07:17:35.515Z,15.19
2018-03-29T07:23:26.399Z,11.85
2018-03-29T07:29:17.343Z,12.41
2018-03-29T07:35:08.173Z,16.09
2018-03-29T07:40:59.083Z,22.16
2018-03-29T07:46:49.958Z,19.61
2018-03-29T07:52:40.873Z,19.19
2018-03-29T07:58:31.770Z,15.1
2018-03-29T08:04:22.641Z,15.23
2018-03-29T08:10:13.549Z,8.7
2018-03-29T08:16:04.428Z,12.3
2018-03-29T08:21:55.330Z,9.24
2018-03-29T08:27:46.222Z,9.48
2018-03-29T08:33:37.126Z,10.35
2018-03-29T08:39:28.014Z,8.86
2018-03-29T08:45:18.910Z,9.95
2018-03-29T08:51:09.799Z,9.3
2018-03-29T08:57:00.689Z,16.61
2018-03-29T09:02:51.624Z,15.65
2018-03-29T09:08:42.467Z,12.29
2018-03-29T09:14:33.401Z,9.46
2018-03-29T09:20:24.276Z,9.12
2018-03-29T09:26:15.159Z,7.54
2018-03-29T09:32:06.070Z,7.24
2018-03-29T09:37:56.945Z,8.75
2018-03-29T09:43:47.854Z,6.56
2018-03-29T09:49:38.741Z,8.55
2018-03-29T09:55:29.624Z,9.87
2018-03-29T10:01:20.542Z,8.96
2018-03-29T10:07:11.412Z,11.82
2018-03-29T10:13:02.358Z,14.2
2018-03-29T10:18:53.249Z,12.34
2018-03-29T10:24:44.129Z,8.29
2018-03-29T10:30:35.023Z,8.6
2018-03-29T10:36:25.878Z,10.36
2018-03-29T10:42:16.850Z,9.87
2018-03-29T10:48:07.721Z,13.82
2018-03-29T10:53:58.604Z,10.05
2018-03-29T10:59:49.506Z,13.37
2018-03-29T11:05:40.434Z,13.45
2018-03-29T11:11:31.347Z,10.71
2018-03-29T11:17:22.211Z,11.64
2018-03-29T11:23:13.044Z,11.71
2018-03-29T11:29:03.960Z,10.08
2018-03-29T11:34:54.878Z,8.96
2018-03-29T11:40:45.761Z,11.54
2018-03-29T11:46:36.657Z,14.35
2018-03-29T11:52:27.565Z,12.35
2018-03-29T11:58:18.484Z,9.41
2018-03-29T12:04:09.365Z,10.44
2018-03-29T12:10:00.260Z,7.54
2018-03-29T12:15:51.142Z,10.47
2018-03-29T12:21:42.099Z,8.01
2018-03-29T12:27:32.942Z,9.17
2018-03-29T12:33:23.814Z,9
2018-03-29T12:39:14.758Z,10.87
2018-03-29T12:45:05.658Z,6.82
2018-03-29T12:50:56.557Z,6.79
2018-03-29T12:56:47.432Z,10.8
2018-03-29T13:02:38.296Z,5.79
2018-03-29T13:08:29.225Z,7.6
2018-03-29T13:14:20.091Z,9.65
2018-03-29T13:20:11.007Z,9.79
2018-03-29T13:26:01.897Z,8.34
2018-03-29T13:31:52.805Z,8.19
2018-03-29T13:37:43.746Z,8.71
2018-03-29T13:43:34.660Z,6.7
2018-03-29T13:49:25.531Z,9.78
2018-03-29T13:55:16.409Z,8.26
2018-03-29T14:01:07.335Z,12.42
2018-03-29T14:06:58.185Z,6.77
2018-03-29T14:12:49.095Z,6.46
2018-03-29T14:18:40.032Z,5.12
2018-03-29T14:24:30.921Z,7.1
2018-03-29T14:30:21.768Z,6.78
2018-03-29T14:36:12.687Z,4.93
2018-03-29T14:42:03.614Z,7.04
2018-03-29T14:47:54.482Z,5.76
2018-03-29T14:53:45.380Z,5.55
2018-03-29T14:59:36.287Z,7.93
2018-03-29T15:05:27.240Z,5.83
2018-03-29T15:11:18.092Z,6.89
2018-03-29T15:17:08.989Z,5.84
2018-03-29T15:22:59.861Z,12.24
2018-03-29T15:28:50.791Z,7.51
2018-03-29T15:34:41.664Z,8.48
2018-03-29T15:40:32.542Z,5.3
2018-03-29T15:46:23.435Z,6.04
2018-03-29T15:52:14.388Z,5.33
2018-03-29T15:58:05.237Z,5.88
2018-03-29T16:03:56.158Z,7.97
2018-03-29T16:09:47.111Z,6.01
2018-03-29T16:15:37.939Z,8.58
2018-03-29T16:21:28.880Z,7.54
2018-03-29T16:27:19.707Z,10.69
2018-03-29T16:33:10.600Z,10.68
2018-03-29T16:39:01.504Z,7.93
2018-03-29T16:44:52.452Z,8.19
2018-03-29T16:50:43.311Z,8.56
2018-03-29T16:56:34.184Z,15.45
2018-03-29T17:02:25.094Z,24.04
2018-03-29T17:08:16.026Z,24.7
2018-03-29T17:14:06.901Z,22.35
2018-03-29T17:19:57.822Z,9.6
2018-03-29T17:25:48.711Z,7.65
2018-03-29T17:31:39.604Z,8.72
2018-03-29T17:37:30.464Z,9.23
2018-03-29T17:43:21.356Z,7.78
2018-03-29T17:49:12.251Z,6.43
2018-03-29T17:55:03.134Z,9.23
2018-03-29T18:00:54.048Z,6.22
2018-03-29T18:06:45.067Z,4.73
2018-03-29T18:12:35.878Z,5.05
2018-03-29T18:18:26.706Z,7.33
2018-03-29T18:24:17.637Z,6.02
2018-03-29T18:30:08.543Z,16.62
2018-03-29T18:35:59.463Z,7.6
2018-03-29T18:41:50.337Z,9.93
2018-03-29T18:47:41.210Z,11.47
2018-03-29T18:53:32.095Z,18.04
2018-03-29T18:59:23.002Z,13.37
2018-03-29T19:05:13.944Z,12.3
2018-03-29T19:11:04.839Z,13.79
2018-03-29T19:16:55.707Z,10.77
2018-03-29T19:22:46.642Z,9.21
2018-03-29T19:28:37.531Z,15.18
2018-03-29T19:34:28.381Z,12.92
2018-03-29T19:40:19.342Z,18.61
2018-03-29T19:46:10.214Z,24.3
2018-03-29T19:52:01.118Z,17.8
2018-03-29T19:57:51.971Z,14.25
2018-03-29T20:03:42.948Z,9.5
2018-03-29T20:09:33.745Z,9.43
2018-03-29T20:15:24.667Z,7.36
2018-03-29T20:21:15.640Z,7.96
2018-03-29T20:27:06.466Z,8.69
2018-03-29T20:32:57.348Z,10.88
2018-03-29T20:38:48.221Z,10.54
2018-03-29T20:44:39.209Z,8.03
2018-03-29T20:50:30.029Z,12.2
2018-03-29T20:56:20.969Z,9.01
2018-03-29T21:02:11.862Z,9.21
2018-03-29T21:08:02.730Z,7.06
2018-03-29T21:13:53.654Z,11.71
2018-03-29T21:19:44.529Z,9.29
2018-03-29T21:25:35.423Z,8.15
2018-03-29T21:31:26.354Z,6.81
2018-03-29T21:37:17.250Z,5.27
2018-03-29T21:43:08.201Z,11.48
2018-03-29T21:48:58.980Z,8.08
2018-03-29T21:54:49.929Z,10.84
2018-03-29T22:00:40.825Z,9.39
2018-03-29T22:06:31.712Z,12.81
2018-03-29T22:12:22.594Z,13.49
2018-03-29T22:18:13.451Z,9.46
2018-03-29T22:24:04.347Z,9.4
2018-03-29T22:29:55.313Z,6.33
2018-03-29T22:35:46.164Z,8.47
2018-03-29T22:41:37.083Z,4.95
2018-03-29T22:47:27.957Z,5.06
2018-03-29T22:53:18.919Z,7.03
2018-03-29T22:59:09.765Z,3.14
2018-03-29T23:05:00.646Z,4.9
2018-03-29T23:10:51.572Z,5.54
2018-03-29T23:16:42.558Z,4.42
2018-03-29T23:22:33.372Z,8.63
2018-03-29T23:28:24.235Z,8.57
2018-03-29T23:34:15.166Z,6.98
2018-03-29T23:40:06.028Z,4.79
2018-03-29T23:45:56.927Z,5.64
2018-03-29T23:51:47.819Z,5.94
2018-03-29T23:57:38.738Z,5.78
